createdAt,value
2023-03-22T04:01:50.323Z,99.90
2023-03-22T04:04:27.244Z,99.90
2023-03-22T04:07:07.064Z,99.90
2023-03-22T04:09:40.355Z,99.90
2023-03-22T04:12:17.010Z,99.90
2023-03-22T04:14:56.651Z,99.90
2023-03-22T04:17:31.998Z,99.90
2023-03-22T04:20:05.386Z,99.90
2023-03-22T04:22:34.898Z,99.90
2023-03-22T04:25:03.601Z,99.90
2023-03-22T04:27:32.318Z,99.90
2023-03-22T04:30:04.860Z,99.90
2023-03-22T04:32:54.033Z,99.90
2023-03-22T04:35:28.843Z,99.90
2023-03-22T04:37:56.751Z,99.90
2023-03-22T04:40:26.442Z,99.90
2023-03-22T04:43:04.324Z,99.90
2023-03-22T04:46:10.049Z,99.90
2023-03-22T04:48:45.647Z,99.90
2023-03-22T04:51:13.897Z,99.90
2023-03-22T04:53:50.429Z,99.90
2023-03-22T04:56:18.704Z,99.90
2023-03-22T04:58:52.741Z,99.90
2023-03-22T05:01:20.640Z,99.90
2023-03-22T05:03:56.753Z,99.90
2023-03-22T05:06:25.184Z,99.90
2023-03-22T05:09:07.132Z,99.90
2023-03-22T05:11:36.248Z,99.90
2023-03-22T05:14:19.047Z,99.90
2023-03-22T05:16:47.298Z,99.90
2023-03-22T05:19:17.208Z,99.90
2023-03-22T05:21:49.793Z,99.90
2023-03-22T05:24:18.537Z,99.90
2023-03-22T05:26:53.620Z,99.90
2023-03-22T05:29:27.027Z,99.90
2023-03-22T05:32:02.850Z,99.90
2023-03-22T05:34:37.012Z,99.90
2023-03-22T05:37:27.038Z,99.90
2023-03-22T05:39:57.143Z,99.90
2023-03-22T05:42:33.910Z,99.90
2023-03-22T05:45:06.339Z,99.90
2023-03-22T05:47:34.882Z,99.90
2023-03-22T05:50:10.806Z,99.90
2023-03-22T05:52:39.556Z,99.90
2023-03-22T05:55:25.933Z,99.90
2023-03-22T05:57:57.706Z,99.90
2023-03-22T06:00:28.444Z,99.90
2023-03-22T06:03:16.867Z,99.90
2023-03-22T06:05:50.678Z,99.90
2023-03-22T06:08:20.727Z,99.90
2023-03-22T06:10:50.912Z,99.90
2023-03-22T06:13:19.243Z,99.90
2023-03-22T06:15:48.000Z,99.90
2023-03-22T06:18:21.107Z,99.90
2023-03-22T06:20:59.347Z,99.90
2023-03-22T06:23:27.388Z,99.90
2023-03-22T06:25:56.334Z,99.90
2023-03-22T06:28:29.443Z,99.90
2023-03-22T06:30:58.162Z,99.90
2023-03-22T06:33:38.351Z,99.90
2023-03-22T06:36:18.985Z,99.90
2023-03-22T06:39:05.035Z,99.90
2023-03-22T06:41:32.985Z,99.90
2023-03-22T06:44:02.521Z,99.90
2023-03-22T06:46:49.348Z,99.90
2023-03-22T06:49:32.962Z,99.90
2023-03-22T06:52:03.543Z,99.90
2023-03-22T06:54:31.786Z,99.90
2023-03-22T06:57:00.301Z,99.90
2023-03-22T06:59:28.359Z,99.90
2023-03-22T07:01:56.535Z,99.90
2023-03-22T07:04:25.640Z,99.90
2023-03-22T07:06:53.606Z,99.90
2023-03-22T07:09:24.063Z,99.90
2023-03-22T07:11:54.576Z,99.90
2023-03-22T07:14:23.307Z,99.90
2023-03-22T07:17:02.319Z,99.90
2023-03-22T07:19:31.748Z,99.90
2023-03-22T07:22:03.075Z,99.90
2023-03-22T07:24:36.081Z,99.90
2023-03-22T07:27:07.710Z,99.90
2023-03-22T07:29:36.099Z,99.90
2023-03-22T07:32:04.328Z,99.90
2023-03-22T07:34:46.880Z,99.90
2023-03-22T07:37:17.249Z,99.90
2023-03-22T07:39:46.676Z,99.90
2023-03-22T07:42:14.808Z,99.90
2023-03-22T07:44:42.977Z,99.90
2023-03-22T07:47:20.280Z,99.90
2023-03-22T07:50:21.737Z,99.90
2023-03-22T07:52:54.700Z,99.90
2023-03-22T07:55:24.053Z,99.90
2023-03-22T07:57:52.172Z,99.90
2023-03-22T08:00:20.781Z,99.90
2023-03-22T08:03:00.049Z,99.90
2023-03-22T08:05:51.771Z,99.90
2023-03-22T08:08:20.836Z,99.90
2023-03-22T08:10:53.142Z,99.90
2023-03-22T08:13:21.078Z,99.90
2023-03-22T08:15:48.980Z,99.90
2023-03-22T08:18:19.445Z,99.90
2023-03-22T08:20:47.288Z,99.90
2023-03-22T08:23:28.845Z,99.90
2023-03-22T08:26:23.254Z,99.90
2023-03-22T08:28:53.756Z,99.90
2023-03-22T08:31:22.429Z,99.90
2023-03-22T08:33:51.375Z,99.90
2023-03-22T08:36:22.679Z,99.90
2023-03-22T08:38:58.490Z,99.90
2023-03-22T08:41:39.943Z,99.90
2023-03-22T08:44:08.075Z,99.90
2023-03-22T08:46:36.990Z,99.90
2023-03-22T08:49:04.954Z,99.90
2023-03-22T08:51:40.852Z,99.90
2023-03-22T08:54:16.455Z,99.90
2023-03-22T08:56:54.536Z,99.90
2023-03-22T08:59:34.367Z,99.90
2023-03-22T09:02:25.687Z,99.90
2023-03-22T09:04:54.682Z,99.90
2023-03-22T09:07:22.598Z,99.90
2023-03-22T09:09:59.852Z,99.90
2023-03-22T09:12:29.809Z,99.90
2023-03-22T09:14:57.681Z,99.90
2023-03-22T09:17:27.771Z,99.90
2023-03-22T09:20:09.641Z,99.90
2023-03-22T09:22:41.861Z,99.90
2023-03-22T09:25:13.061Z,99.90
2023-03-22T09:27:45.859Z,99.90
2023-03-22T09:30:14.475Z,99.90
2023-03-22T09:32:43.077Z,99.90
2023-03-22T09:35:13.393Z,99.90
2023-03-22T09:37:53.315Z,99.90
2023-03-22T09:40:23.655Z,99.90
2023-03-22T09:42:56.597Z,99.90
2023-03-22T09:45:32.175Z,99.90
2023-03-22T09:48:00.965Z,99.90
2023-03-22T09:50:32.838Z,99.90
2023-03-22T09:53:01.495Z,99.90
2023-03-22T09:55:37.307Z,99.90
2023-03-22T09:58:15.379Z,99.90
2023-03-22T10:00:46.816Z,99.90
2023-03-22T10:03:25.651Z,99.90
2023-03-22T10:06:02.298Z,99.90
2023-03-22T10:08:38.130Z,99.90
2023-03-22T10:11:14.295Z,99.90
2023-03-22T10:13:55.499Z,99.90
2023-03-22T10:16:28.891Z,99.90
2023-03-22T10:19:05.203Z,99.90
2023-03-22T10:21:34.227Z,99.90
2023-03-22T10:24:06.443Z,99.90
2023-03-22T10:26:39.282Z,99.90
2023-03-22T10:29:14.402Z,99.90
2023-03-22T10:31:45.206Z,99.90
2023-03-22T10:34:20.116Z,99.90
2023-03-22T10:36:49.829Z,99.90
2023-03-22T10:39:28.362Z,99.90
2023-03-22T10:41:58.204Z,99.90
2023-03-22T10:44:30.073Z,99.90
2023-03-22T10:47:07.242Z,99.90
2023-03-22T10:49:39.185Z,99.90
2023-03-22T10:52:20.877Z,99.90
2023-03-22T10:54:48.857Z,99.90
2023-03-22T10:57:17.370Z,99.90
2023-03-22T10:59:48.997Z,99.90
2023-03-22T11:02:22.739Z,99.90
2023-03-22T11:04:52.821Z,99.90
2023-03-22T11:07:33.706Z,99.90
2023-03-22T11:10:14.373Z,99.90
2023-03-22T11:12:46.886Z,99.90
2023-03-22T11:15:26.877Z,99.90
2023-03-22T11:17:59.972Z,99.90
2023-03-22T11:20:29.943Z,99.90
2023-03-22T11:23:02.820Z,99.90
2023-03-22T11:25:32.321Z,99.90
2023-03-22T11:28:10.889Z,99.90
2023-03-22T11:30:40.451Z,99.90
2023-03-22T11:33:19.281Z,99.90
2023-03-22T11:35:48.878Z,99.60
2023-03-22T11:38:29.457Z,97.60
2023-03-22T11:41:00.905Z,96.50
2023-03-22T11:43:33.873Z,95.80
2023-03-22T11:46:04.020Z,94.90
2023-03-22T11:48:33.646Z,94.80
2023-03-22T11:51:09.407Z,93.60
2023-03-22T11:53:40.516Z,93.70
2023-03-22T11:56:11.566Z,94.00
2023-03-22T11:58:59.562Z,92.70
2023-03-22T12:01:38.311Z,92.80
2023-03-22T12:04:11.379Z,92.50
2023-03-22T12:06:41.807Z,93.50
2023-03-22T12:09:22.631Z,92.80
2023-03-22T12:11:53.185Z,93.60
2023-03-22T12:14:26.329Z,92.70
2023-03-22T12:17:00.445Z,92.60
2023-03-22T12:19:40.974Z,92.90
2023-03-22T12:22:13.941Z,92.40
2023-03-22T12:24:42.994Z,92.10
2023-03-22T12:27:18.146Z,92.50
2023-03-22T12:29:51.990Z,92.00
2023-03-22T12:32:26.329Z,91.10
2023-03-22T12:35:09.243Z,91.30
2023-03-22T12:37:47.293Z,91.70
2023-03-22T12:40:22.832Z,91.10
2023-03-22T12:43:00.254Z,91.90
2023-03-22T12:45:29.668Z,92.30
2023-03-22T12:48:05.548Z,92.10
2023-03-22T12:50:38.574Z,92.00
2023-03-22T12:53:07.175Z,92.10
2023-03-22T12:55:36.781Z,91.50
2023-03-22T12:58:07.456Z,91.20
2023-03-22T13:00:39.901Z,91.50
2023-03-22T13:03:24.068Z,91.70
2023-03-22T13:06:01.438Z,91.20
2023-03-22T13:09:13.011Z,91.20
2023-03-22T13:11:41.084Z,91.30
2023-03-22T13:14:09.075Z,91.10
2023-03-22T13:16:53.019Z,91.70
2023-03-22T13:19:34.120Z,91.10
2023-03-22T13:22:16.776Z,90.80
2023-03-22T13:25:14.384Z,91.40
2023-03-22T13:27:50.746Z,91.30
2023-03-22T13:30:25.809Z,91.30
2023-03-22T13:32:57.805Z,90.70
2023-03-22T13:35:34.585Z,90.20
2023-03-22T13:38:04.321Z,89.80
2023-03-22T13:40:37.441Z,90.10
2023-03-22T13:43:14.055Z,90.30
2023-03-22T13:46:03.649Z,90.50
2023-03-22T13:48:40.822Z,90.80
2023-03-22T13:51:18.012Z,90.40
2023-03-22T13:53:56.268Z,90.60
2023-03-22T13:56:34.782Z,90.40
2023-03-22T13:59:05.170Z,90.40
2023-03-22T14:01:36.211Z,90.70
2023-03-22T14:04:10.551Z,90.40
2023-03-22T14:06:48.595Z,90.80
2023-03-22T14:09:24.395Z,90.10
2023-03-22T14:11:57.351Z,90.40
2023-03-22T14:14:29.876Z,89.40
2023-03-22T14:17:03.191Z,88.90
2023-03-22T14:19:33.848Z,87.70
